sensor_id;sensor_type;location;lat;lon;timestamp;P1;durP1;ratioP1;P2;durP2;ratioP2
63350;SDS011;64988;51.058;17.040;2022-11-23T00:04:05;198.00;;;82.07;;
63350;SDS011;64988;51.058;17.040;2022-11-23T00:09:59;204.23;;;88.40;;
63350;SDS011;64988;51.058;17.040;2022-11-23T00:15:52;203.43;;;87.75;;
63350;SDS011;64988;51.058;17.040;2022-11-23T00:21:44;188.90;;;84.72;;
63350;SDS011;64988;51.058;17.040;2022-11-23T00:27:36;196.40;;;82.28;;
63350;SDS011;64988;51.058;17.040;2022-11-23T00:33:28;190.82;;;81.30;;
63350;SDS011;64988;51.058;17.040;2022-11-23T00:39:20;197.70;;;83.53;;
63350;SDS011;64988;51.058;17.040;2022-11-23T00:45:13;188.43;;;83.45;;
63350;SDS011;64988;51.058;17.040;2022-11-23T00:51:08;191.15;;;82.38;;
63350;SDS011;64988;51.058;17.040;2022-11-23T00:57:03;189.05;;;80.85;;
63350;SDS011;64988;51.058;17.040;2022-11-23T01:02:56;171.63;;;75.67;;
63350;SDS011;64988;51.058;17.040;2022-11-23T01:08:49;186.75;;;79.07;;
63350;SDS011;64988;51.058;17.040;2022-11-23T01:20:34;167.00;;;76.10;;
63350;SDS011;64988;51.058;17.040;2022-11-23T01:26:27;152.17;;;72.00;;
63350;SDS011;64988;51.058;17.040;2022-11-23T01:32:21;168.15;;;74.50;;
63350;SDS011;64988;51.058;17.040;2022-11-23T01:38:13;163.65;;;72.78;;
63350;SDS011;64988;51.058;17.040;2022-11-23T01:44:21;161.05;;;74.13;;
63350;SDS011;64988;51.058;17.040;2022-11-23T01:50:17;159.05;;;73.65;;
63350;SDS011;64988;51.058;17.040;2022-11-23T01:56:12;161.02;;;74.75;;
63350;SDS011;64988;51.058;17.040;2022-11-23T02:02:08;160.77;;;73.07;;
63350;SDS011;64988;51.058;17.040;2022-11-23T02:08:00;164.05;;;71.95;;
63350;SDS011;64988;51.058;17.040;2022-11-23T02:13:53;157.50;;;70.87;;
63350;SDS011;64988;51.058;17.040;2022-11-23T02:19:54;151.38;;;68.30;;
63350;SDS011;64988;51.058;17.040;2022-11-23T02:26:05;151.57;;;69.78;;
63350;SDS011;64988;51.058;17.040;2022-11-23T02:32:03;145.77;;;67.43;;
63350;SDS011;64988;51.058;17.040;2022-11-23T02:37:55;150.40;;;65.90;;
63350;SDS011;64988;51.058;17.040;2022-11-23T02:43:50;148.27;;;64.25;;
63350;SDS011;64988;51.058;17.040;2022-11-23T02:49:50;147.48;;;69.10;;
63350;SDS011;64988;51.058;17.040;2022-11-23T02:55:42;148.10;;;66.53;;
63350;SDS011;64988;51.058;17.040;2022-11-23T03:01:34;147.32;;;67.95;;
63350;SDS011;64988;51.058;17.040;2022-11-23T03:07:29;139.95;;;64.63;;
63350;SDS011;64988;51.058;17.040;2022-11-23T03:13:22;130.37;;;58.97;;
63350;SDS011;64988;51.058;17.040;2022-11-23T03:19:15;139.60;;;61.90;;
63350;SDS011;64988;51.058;17.040;2022-11-23T03:25:08;140.93;;;62.83;;
63350;SDS011;64988;51.058;17.040;2022-11-23T03:31:01;145.00;;;63.42;;
63350;SDS011;64988;51.058;17.040;2022-11-23T03:36:56;141.00;;;63.25;;
63350;SDS011;64988;51.058;17.040;2022-11-23T03:42:48;134.27;;;63.93;;
63350;SDS011;64988;51.058;17.040;2022-11-23T03:48:40;139.80;;;66.47;;
63350;SDS011;64988;51.058;17.040;2022-11-23T03:54:32;135.15;;;62.92;;
63350;SDS011;64988;51.058;17.040;2022-11-23T04:00:25;140.77;;;63.17;;
63350;SDS011;64988;51.058;17.040;2022-11-23T04:06:18;130.18;;;57.22;;
63350;SDS011;64988;51.058;17.040;2022-11-23T04:12:40;116.43;;;56.65;;
63350;SDS011;64988;51.058;17.040;2022-11-23T04:18:32;126.43;;;55.63;;
63350;SDS011;64988;51.058;17.040;2022-11-23T04:24:26;129.05;;;56.53;;
63350;SDS011;64988;51.058;17.040;2022-11-23T04:30:21;130.07;;;58.35;;
63350;SDS011;64988;51.058;17.040;2022-11-23T04:36:16;137.13;;;59.83;;
63350;SDS011;64988;51.058;17.040;2022-11-23T04:42:10;132.25;;;60.78;;
63350;SDS011;64988;51.058;17.040;2022-11-23T04:48:05;141.70;;;62.25;;
63350;SDS011;64988;51.058;17.040;2022-11-23T04:54:00;122.95;;;58.50;;
63350;SDS011;64988;51.058;17.040;2022-11-23T04:59:56;121.53;;;56.05;;
63350;SDS011;64988;51.058;17.040;2022-11-23T05:05:50;113.85;;;55.30;;
63350;SDS011;64988;51.058;17.040;2022-11-23T05:11:42;124.00;;;57.15;;
63350;SDS011;64988;51.058;17.040;2022-11-23T05:17:35;119.73;;;56.97;;
63350;SDS011;64988;51.058;17.040;2022-11-23T05:23:32;119.50;;;54.85;;
63350;SDS011;64988;51.058;17.040;2022-11-23T05:29:26;117.70;;;53.90;;
63350;SDS011;64988;51.058;17.040;2022-11-23T05:35:18;108.75;;;54.05;;
63350;SDS011;64988;51.058;17.040;2022-11-23T05:41:12;115.75;;;54.10;;
63350;SDS011;64988;51.058;17.040;2022-11-23T05:47:06;117.93;;;55.72;;
63350;SDS011;64988;51.058;17.040;2022-11-23T05:53:01;115.53;;;54.60;;
63350;SDS011;64988;51.058;17.040;2022-11-23T05:58:54;119.95;;;56.58;;
63350;SDS011;64988;51.058;17.040;2022-11-23T06:04:48;104.78;;;51.53;;
63350;SDS011;64988;51.058;17.040;2022-11-23T06:10:48;110.68;;;55.03;;
63350;SDS011;64988;51.058;17.040;2022-11-23T06:16:40;110.17;;;54.00;;
63350;SDS011;64988;51.058;17.040;2022-11-23T06:22:59;119.25;;;53.67;;
63350;SDS011;64988;51.058;17.040;2022-11-23T06:28:51;117.53;;;55.70;;
63350;SDS011;64988;51.058;17.040;2022-11-23T06:34:44;110.05;;;52.55;;
63350;SDS011;64988;51.058;17.040;2022-11-23T06:40:36;109.93;;;53.58;;
63350;SDS011;64988;51.058;17.040;2022-11-23T06:46:30;113.57;;;50.65;;
63350;SDS011;64988;51.058;17.040;2022-11-23T06:52:23;106.90;;;50.83;;
63350;SDS011;64988;51.058;17.040;2022-11-23T06:58:16;120.32;;;53.45;;
63350;SDS011;64988;51.058;17.040;2022-11-23T07:04:09;105.53;;;49.45;;
63350;SDS011;64988;51.058;17.040;2022-11-23T07:10:10;112.93;;;51.38;;
63350;SDS011;64988;51.058;17.040;2022-11-23T07:16:12;104.05;;;49.33;;
63350;SDS011;64988;51.058;17.040;2022-11-23T07:22:06;100.53;;;48.95;;
63350;SDS011;64988;51.058;17.040;2022-11-23T07:28:00;114.35;;;50.88;;
63350;SDS011;64988;51.058;17.040;2022-11-23T07:33:55;99.18;;;45.38;;
63350;SDS011;64988;51.058;17.040;2022-11-23T07:39:48;99.18;;;48.80;;
63350;SDS011;64988;51.058;17.040;2022-11-23T07:45:53;94.60;;;46.00;;
63350;SDS011;64988;51.058;17.040;2022-11-23T07:51:49;100.15;;;47.20;;
63350;SDS011;64988;51.058;17.040;2022-11-23T07:57:41;110.00;;;49.63;;
63350;SDS011;64988;51.058;17.040;2022-11-23T08:03:33;104.97;;;47.42;;
63350;SDS011;64988;51.058;17.040;2022-11-23T08:09:25;98.55;;;46.33;;
63350;SDS011;64988;51.058;17.040;2022-11-23T08:15:21;103.15;;;47.08;;
63350;SDS011;64988;51.058;17.040;2022-11-23T08:21:15;100.97;;;46.47;;
63350;SDS011;64988;51.058;17.040;2022-11-23T08:27:08;94.93;;;46.60;;
63350;SDS011;64988;51.058;17.040;2022-11-23T08:33:04;90.22;;;45.60;;
63350;SDS011;64988;51.058;17.040;2022-11-23T08:38:57;95.00;;;45.28;;
63350;SDS011;64988;51.058;17.040;2022-11-23T08:44:50;98.97;;;47.78;;
63350;SDS011;64988;51.058;17.040;2022-11-23T08:50:42;98.70;;;46.08;;
63350;SDS011;64988;51.058;17.040;2022-11-23T08:56:35;97.27;;;45.93;;
63350;SDS011;64988;51.058;17.040;2022-11-23T09:02:27;92.18;;;46.03;;
63350;SDS011;64988;51.058;17.040;2022-11-23T09:08:21;89.65;;;43.22;;
63350;SDS011;64988;51.058;17.040;2022-11-23T09:14:14;92.15;;;46.05;;
63350;SDS011;64988;51.058;17.040;2022-11-23T09:20:07;94.53;;;47.00;;
63350;SDS011;64988;51.058;17.040;2022-11-23T09:26:01;101.57;;;48.42;;
63350;SDS011;64988;51.058;17.040;2022-11-23T09:31:55;101.20;;;48.03;;
63350;SDS011;64988;51.058;17.040;2022-11-23T09:37:53;97.57;;;48.17;;
63350;SDS011;64988;51.058;17.040;2022-11-23T09:43:54;92.65;;;47.33;;
63350;SDS011;64988;51.058;17.040;2022-11-23T09:56:01;90.25;;;45.22;;
63350;SDS011;64988;51.058;17.040;2022-11-23T10:01:54;91.80;;;45.03;;
63350;SDS011;64988;51.058;17.040;2022-11-23T10:07:58;91.15;;;46.70;;
63350;SDS011;64988;51.058;17.040;2022-11-23T10:26:33;89.53;;;43.33;;
63350;SDS011;64988;51.058;17.040;2022-11-23T10:32:50;88.10;;;42.22;;
63350;SDS011;64988;51.058;17.040;2022-11-23T10:38:55;95.70;;;43.00;;
63350;SDS011;64988;51.058;17.040;2022-11-23T10:44:51;91.77;;;43.17;;
63350;SDS011;64988;51.058;17.040;2022-11-23T10:50:45;84.10;;;41.22;;
63350;SDS011;64988;51.058;17.040;2022-11-23T10:56:44;90.75;;;42.00;;
63350;SDS011;64988;51.058;17.040;2022-11-23T11:02:48;80.57;;;40.17;;
63350;SDS011;64988;51.058;17.040;2022-11-23T11:08:50;88.65;;;42.78;;
63350;SDS011;64988;51.058;17.040;2022-11-23T11:14:53;81.53;;;40.35;;
63350;SDS011;64988;51.058;17.040;2022-11-23T11:21:29;80.75;;;41.53;;
63350;SDS011;64988;51.058;17.040;2022-11-23T11:27:18;79.73;;;38.07;;
63350;SDS011;64988;51.058;17.040;2022-11-23T11:33:17;79.15;;;38.92;;
63350;SDS011;64988;51.058;17.040;2022-11-23T11:40:05;77.63;;;38.97;;
63350;SDS011;64988;51.058;17.040;2022-11-23T11:45:45;79.00;;;39.88;;
63350;SDS011;64988;51.058;17.040;2022-11-23T11:52:17;76.60;;;38.53;;
63350;SDS011;64988;51.058;17.040;2022-11-23T11:58:15;76.00;;;38.28;;
63350;SDS011;64988;51.058;17.040;2022-11-23T12:04:14;81.85;;;39.97;;
63350;SDS011;64988;51.058;17.040;2022-11-23T12:10:14;75.68;;;38.20;;
63350;SDS011;64988;51.058;17.040;2022-11-23T12:35:23;75.53;;;35.13;;
63350;SDS011;64988;51.058;17.040;2022-11-23T12:41:22;73.93;;;35.60;;
63350;SDS011;64988;51.058;17.040;2022-11-23T12:47:44;79.18;;;37.47;;
63350;SDS011;64988;51.058;17.040;2022-11-23T13:00:05;73.40;;;36.65;;
63350;SDS011;64988;51.058;17.040;2022-11-23T13:12:19;75.40;;;32.15;;
63350;SDS011;64988;51.058;17.040;2022-11-23T13:18:41;85.55;;;36.78;;
63350;SDS011;64988;51.058;17.040;2022-11-23T13:37:07;92.00;;;41.38;;
63350;SDS011;64988;51.058;17.040;2022-11-23T13:49:30;98.72;;;39.38;;
63350;SDS011;64988;51.058;17.040;2022-11-23T13:55:32;79.23;;;33.00;;
63350;SDS011;64988;51.058;17.040;2022-11-23T14:07:51;94.00;;;37.60;;
63350;SDS011;64988;51.058;17.040;2022-11-23T14:13:49;85.97;;;35.95;;
63350;SDS011;64988;51.058;17.040;2022-11-23T14:44:31;95.72;;;39.67;;
63350;SDS011;64988;51.058;17.040;2022-11-23T14:50:29;107.97;;;43.33;;
63350;SDS011;64988;51.058;17.040;2022-11-23T15:08:18;102.40;;;42.35;;
63350;SDS011;64988;51.058;17.040;2022-11-23T15:14:19;101.75;;;42.17;;
63350;SDS011;64988;51.058;17.040;2022-11-23T15:20:17;105.63;;;42.00;;
63350;SDS011;64988;51.058;17.040;2022-11-23T15:26:12;106.75;;;41.67;;
63350;SDS011;64988;51.058;17.040;2022-11-23T15:32:36;107.18;;;43.17;;
63350;SDS011;64988;51.058;17.040;2022-11-23T15:38:28;103.67;;;41.23;;
63350;SDS011;64988;51.058;17.040;2022-11-23T15:44:23;109.63;;;41.65;;
63350;SDS011;64988;51.058;17.040;2022-11-23T15:50:24;104.85;;;41.20;;
63350;SDS011;64988;51.058;17.040;2022-11-23T16:02:20;112.07;;;43.50;;
63350;SDS011;64988;51.058;17.040;2022-11-23T16:08:24;115.65;;;45.03;;
63350;SDS011;64988;51.058;17.040;2022-11-23T16:14:28;128.00;;;49.95;;
63350;SDS011;64988;51.058;17.040;2022-11-23T16:20:24;125.47;;;49.72;;
63350;SDS011;64988;51.058;17.040;2022-11-23T16:26:17;129.82;;;52.60;;
63350;SDS011;64988;51.058;17.040;2022-11-23T16:32:21;126.18;;;51.13;;
63350;SDS011;64988;51.058;17.040;2022-11-23T16:38:16;139.40;;;54.17;;
63350;SDS011;64988;51.058;17.040;2022-11-23T16:44:08;187.70;;;78.57;;
63350;SDS011;64988;51.058;17.040;2022-11-23T16:50:02;149.65;;;56.78;;
63350;SDS011;64988;51.058;17.040;2022-11-23T16:55:56;156.10;;;58.55;;
63350;SDS011;64988;51.058;17.040;2022-11-23T17:01:49;147.63;;;57.45;;
63350;SDS011;64988;51.058;17.040;2022-11-23T17:07:50;155.02;;;58.67;;
63350;SDS011;64988;51.058;17.040;2022-11-23T17:13:44;152.73;;;59.90;;
63350;SDS011;64988;51.058;17.040;2022-11-23T17:19:38;153.45;;;55.95;;
63350;SDS011;64988;51.058;17.040;2022-11-23T17:25:33;158.32;;;59.17;;
63350;SDS011;64988;51.058;17.040;2022-11-23T17:31:28;161.02;;;58.92;;
63350;SDS011;64988;51.058;17.040;2022-11-23T17:37:22;171.18;;;62.15;;
63350;SDS011;64988;51.058;17.040;2022-11-23T17:43:15;165.37;;;61.10;;
63350;SDS011;64988;51.058;17.040;2022-11-23T17:49:07;157.23;;;58.85;;
63350;SDS011;64988;51.058;17.040;2022-11-23T17:55:03;152.40;;;59.38;;
63350;SDS011;64988;51.058;17.040;2022-11-23T18:00:56;166.07;;;60.67;;
63350;SDS011;64988;51.058;17.040;2022-11-23T18:06:49;152.90;;;57.25;;
63350;SDS011;64988;51.058;17.040;2022-11-23T18:12:41;154.90;;;55.88;;
63350;SDS011;64988;51.058;17.040;2022-11-23T18:18:36;153.90;;;60.13;;
63350;SDS011;64988;51.058;17.040;2022-11-23T18:24:29;157.18;;;59.00;;
63350;SDS011;64988;51.058;17.040;2022-11-23T18:30:22;155.65;;;58.72;;
63350;SDS011;64988;51.058;17.040;2022-11-23T18:36:15;165.27;;;60.47;;
63350;SDS011;64988;51.058;17.040;2022-11-23T18:42:09;154.95;;;62.42;;
63350;SDS011;64988;51.058;17.040;2022-11-23T18:48:01;160.00;;;63.00;;
63350;SDS011;64988;51.058;17.040;2022-11-23T18:53:54;172.48;;;67.32;;
63350;SDS011;64988;51.058;17.040;2022-11-23T18:59:49;164.50;;;65.53;;
63350;SDS011;64988;51.058;17.040;2022-11-23T19:05:49;158.70;;;65.70;;
63350;SDS011;64988;51.058;17.040;2022-11-23T19:11:42;161.60;;;62.78;;
63350;SDS011;64988;51.058;17.040;2022-11-23T19:17:34;167.95;;;66.88;;
63350;SDS011;64988;51.058;17.040;2022-11-23T19:23:28;157.40;;;63.47;;
63350;SDS011;64988;51.058;17.040;2022-11-23T19:29:20;162.07;;;65.60;;
63350;SDS011;64988;51.058;17.040;2022-11-23T19:35:15;162.68;;;64.75;;
63350;SDS011;64988;51.058;17.040;2022-11-23T19:41:09;161.65;;;64.30;;
63350;SDS011;64988;51.058;17.040;2022-11-23T19:47:02;165.90;;;68.07;;
63350;SDS011;64988;51.058;17.040;2022-11-23T19:53:06;149.23;;;59.13;;
63350;SDS011;64988;51.058;17.040;2022-11-23T19:59:04;154.02;;;62.53;;
63350;SDS011;64988;51.058;17.040;2022-11-23T20:04:57;155.50;;;61.70;;
63350;SDS011;64988;51.058;17.040;2022-11-23T20:10:50;150.88;;;56.95;;
63350;SDS011;64988;51.058;17.040;2022-11-23T20:16:43;150.98;;;60.30;;
63350;SDS011;64988;51.058;17.040;2022-11-23T20:22:35;169.23;;;66.55;;
63350;SDS011;64988;51.058;17.040;2022-11-23T20:28:27;170.70;;;72.13;;
63350;SDS011;64988;51.058;17.040;2022-11-23T20:34:23;169.18;;;64.53;;
63350;SDS011;64988;51.058;17.040;2022-11-23T20:40:23;173.73;;;67.68;;
63350;SDS011;64988;51.058;17.040;2022-11-23T20:46:17;185.98;;;67.05;;
63350;SDS011;64988;51.058;17.040;2022-11-23T20:52:29;177.55;;;70.63;;
63350;SDS011;64988;51.058;17.040;2022-11-23T20:58:22;171.83;;;68.33;;
63350;SDS011;64988;51.058;17.040;2022-11-23T21:04:14;166.93;;;63.10;;
63350;SDS011;64988;51.058;17.040;2022-11-23T21:10:08;155.95;;;65.55;;
63350;SDS011;64988;51.058;17.040;2022-11-23T21:16:04;177.82;;;69.82;;
63350;SDS011;64988;51.058;17.040;2022-11-23T21:21:57;173.50;;;70.82;;
63350;SDS011;64988;51.058;17.040;2022-11-23T21:27:53;171.95;;;72.65;;
63350;SDS011;64988;51.058;17.040;2022-11-23T21:33:46;173.93;;;68.47;;
63350;SDS011;64988;51.058;17.040;2022-11-23T21:39:44;163.18;;;64.25;;
63350;SDS011;64988;51.058;17.040;2022-11-23T21:45:43;147.65;;;61.28;;
63350;SDS011;64988;51.058;17.040;2022-11-23T21:51:37;143.10;;;59.60;;
63350;SDS011;64988;51.058;17.040;2022-11-23T21:57:30;144.80;;;56.35;;
63350;SDS011;64988;51.058;17.040;2022-11-23T22:03:23;134.70;;;54.40;;
63350;SDS011;64988;51.058;17.040;2022-11-23T22:09:32;141.32;;;56.78;;
63350;SDS011;64988;51.058;17.040;2022-11-23T22:21:19;151.52;;;64.75;;
63350;SDS011;64988;51.058;17.040;2022-11-23T22:27:13;165.75;;;66.47;;
63350;SDS011;64988;51.058;17.040;2022-11-23T22:33:05;163.00;;;64.57;;
63350;SDS011;64988;51.058;17.040;2022-11-23T22:38:59;161.90;;;64.68;;
63350;SDS011;64988;51.058;17.040;2022-11-23T22:44:53;146.65;;;58.78;;
63350;SDS011;64988;51.058;17.040;2022-11-23T22:50:53;135.77;;;55.55;;
63350;SDS011;64988;51.058;17.040;2022-11-23T22:56:50;151.77;;;59.08;;
63350;SDS011;64988;51.058;17.040;2022-11-23T23:02:44;153.63;;;59.40;;
63350;SDS011;64988;51.058;17.040;2022-11-23T23:08:38;145.38;;;58.05;;
63350;SDS011;64988;51.058;17.040;2022-11-23T23:14:31;138.73;;;55.38;;
63350;SDS011;64988;51.058;17.040;2022-11-23T23:20:23;151.85;;;56.78;;
63350;SDS011;64988;51.058;17.040;2022-11-23T23:38:05;144.75;;;58.08;;
63350;SDS011;64988;51.058;17.040;2022-11-23T23:43:58;143.48;;;56.40;;
63350;SDS011;64988;51.058;17.040;2022-11-23T23:49:51;153.73;;;59.38;;
63350;SDS011;64988;51.058;17.040;2022-11-23T23:55:53;143.13;;;56.07;;
